Terminal Aerodrome Forecast
Issued by NWS Goodland, KS

Home | Current Version | Previous Version | Text Only | Print | Product List | Glossary On
Versions: 1 2 3 4 5 6 7 8 9 10 11 12 13 14 15 16 17 18
000
FTUS43 KGLD 282001 AAA
TAFGLD
TAF AMD
KGLD 282001Z 2820/2918 11012G18KT 6SM RA BR OVC007
      TEMPO 2820/2823 3SM -RA BR OVC004
     FM282300 09013KT 3SM -RA OVC002
     FM290600 06013KT 1SM -RA BR OVC002
     FM291200 03014KT 1SM -RA BR OVC002=

USA.gov is the U.S. government's official web portal to all federal, state and local government web resources and services.